Accueil
METAR-TAF:

METAR-TAF

Aéroports :

Aéroport d'Anvers

Anvers, Belgique

latitude: 51-12N, longitude: 004-28E, altitude: 12 m

Observation

Le bulletin a été fait il y a 19 minutes, à 04:20 UTC
Vent 4 kt de nord/nord-est
Température 4°C
Humidité 93%
Pression 1029 hPa
Visibilité 10 km ou plus
pas de nuages en-dessous de 1500 mètres et pas de cumulonimbus.

METAR: EBAW 240420Z AUTO 03004KT CAVOK 04/03 Q1029

Heure: 05:39 (04:39 UTC)

Prévision

Le bulletin a été fait il y a 2 heures et 31 minutes, à 02:08 UTC
Prévision valable du 24 à 03 UTC au 24 à 12 UTC
Vent 5 kt de nord/nord-est
Visibilité 10 km ou plus
Quelques nuages à une hauteur de 2000 ft
Nuages fragmentés à une hauteur de 4000 ft

TAF: EBAW 240208Z 2403/2412 02005KT 9999 FEW020 BKN040

Observations et prévisions météorologiques de plus de 4000 aéroports (messages METAR et TAF).

Les stations disponibles sont représentées par des disques jaunes et rouges sur la carte.

Passer la souris dessus pour voir le nom de la station.

Cliquer dessus pour voir les observations et prévisions météorologiques.

Pour changer de carte: cliquez sur les boutons verts avec une croix noire pour zoomer, sur le bouton vert avec un tiret pour effectuer un zoom arrière, ou sur les flèches vertes pour les cartes adjacentes.


METAR-TAF: